createdAt,value
2022-08-07T00:00:39.915Z,18.61
2022-08-07T00:03:08.700Z,18.57
2022-08-07T00:05:38.895Z,18.53
2022-08-07T00:08:08.035Z,18.55
2022-08-07T00:10:48.224Z,18.50
2022-08-07T00:13:25.827Z,18.44
2022-08-07T00:15:55.135Z,18.45
2022-08-07T00:18:25.092Z,18.44
2022-08-07T00:20:56.806Z,18.46
2022-08-07T00:23:28.278Z,18.38
2022-08-07T00:26:01.609Z,18.30
2022-08-07T00:28:34.387Z,18.28
2022-08-07T00:31:04.313Z,18.23
2022-08-07T00:33:33.808Z,18.23
2022-08-07T00:36:03.621Z,18.17
2022-08-07T00:38:33.267Z,18.18
2022-08-07T00:41:02.106Z,18.17
2022-08-07T00:43:59.033Z,18.14
2022-08-07T00:46:17.929Z,18.17
2022-08-07T00:48:45.743Z,18.14
2022-08-07T00:51:19.237Z,18.08
2022-08-07T00:53:54.998Z,18.08
2022-08-07T00:56:30.059Z,18.07
2022-08-07T00:58:58.651Z,18.04
2022-08-07T01:01:26.784Z,18.04
2022-08-07T01:04:00.077Z,18.00
2022-08-07T01:06:30.043Z,17.89
2022-08-07T01:09:00.972Z,17.88
2022-08-07T01:12:10.140Z,17.89
2022-08-07T01:14:17.448Z,17.83
2022-08-07T01:16:49.752Z,17.86
2022-08-07T01:19:19.918Z,17.79
2022-08-07T01:21:53.342Z,17.77
2022-08-07T01:24:23.571Z,17.75
2022-08-07T01:26:52.716Z,17.63
2022-08-07T01:29:23.492Z,17.66
2022-08-07T01:31:59.678Z,17.66
2022-08-07T01:34:27.958Z,17.68
2022-08-07T01:37:00.300Z,17.63
2022-08-07T01:39:41.135Z,17.56
2022-08-07T01:42:39.874Z,17.58
2022-08-07T01:45:04.880Z,17.58
2022-08-07T01:48:18.154Z,17.55
2022-08-07T01:50:28.959Z,17.51
2022-08-07T01:53:00.345Z,17.52
2022-08-07T01:55:35.321Z,17.46
2022-08-07T01:58:28.887Z,17.44
2022-08-07T02:01:09.767Z,17.46
2022-08-07T02:03:50.235Z,17.40
2022-08-07T02:06:31.986Z,17.38
2022-08-07T02:09:05.142Z,17.33
2022-08-07T02:12:04.982Z,17.32
2022-08-07T02:14:35.951Z,17.36
2022-08-07T02:17:09.917Z,17.33
2022-08-07T02:20:07.359Z,17.32
2022-08-07T02:22:30.406Z,17.28
2022-08-07T02:25:00.806Z,17.23
2022-08-07T02:27:34.645Z,17.18
2022-08-07T02:30:07.465Z,17.16
2022-08-07T02:32:39.599Z,17.15
2022-08-07T02:36:30.136Z,17.07
2022-08-07T02:38:16.686Z,17.05
2022-08-07T02:40:47.113Z,17.03
2022-08-07T02:43:16.843Z,17.03
2022-08-07T02:46:00.658Z,17.02
2022-08-07T02:48:30.268Z,16.98
2022-08-07T02:51:01.778Z,17.00
2022-08-07T02:53:38.695Z,17.00
2022-08-07T02:56:21.128Z,16.96
2022-08-07T02:58:51.490Z,16.90
2022-08-07T03:01:35.471Z,16.87
2022-08-07T03:04:07.212Z,16.82
2022-08-07T03:06:36.404Z,16.79
2022-08-07T03:09:11.500Z,16.72
2022-08-07T03:11:52.287Z,16.71
2022-08-07T03:14:27.874Z,16.73
2022-08-07T03:16:56.788Z,16.67
2022-08-07T03:19:29.041Z,16.65
2022-08-07T03:22:07.073Z,16.59
2022-08-07T03:24:36.751Z,16.57
2022-08-07T03:27:09.231Z,16.57
2022-08-07T03:29:44.587Z,16.59
2022-08-07T03:32:20.106Z,16.55
2022-08-07T03:35:00.936Z,16.45
2022-08-07T03:37:46.503Z,16.41
2022-08-07T03:40:22.345Z,16.33
2022-08-07T03:42:52.472Z,16.28
2022-08-07T03:45:31.117Z,16.21
2022-08-07T03:48:00.117Z,16.18
2022-08-07T03:50:29.123Z,16.20
2022-08-07T03:52:58.927Z,16.21
2022-08-07T03:55:53.414Z,16.24
2022-08-07T03:59:07.063Z,16.23
2022-08-07T04:01:07.627Z,16.21
2022-08-07T04:03:53.845Z,16.20
2022-08-07T04:06:37.258Z,16.25
2022-08-07T04:09:08.331Z,16.22
2022-08-07T04:12:25.933Z,16.13
2022-08-07T04:14:37.311Z,16.12
2022-08-07T04:17:19.868Z,16.03
2022-08-07T04:19:52.861Z,15.98
2022-08-07T04:22:29.191Z,15.99
2022-08-07T04:24:58.546Z,16.02
2022-08-07T04:27:26.875Z,16.00
2022-08-07T04:30:01.281Z,15.96
2022-08-07T04:32:34.652Z,15.90
2022-08-07T04:35:05.730Z,15.93
2022-08-07T04:37:52.929Z,15.97
2022-08-07T04:40:29.830Z,15.98
2022-08-07T04:43:02.111Z,16.03
2022-08-07T04:45:52.085Z,16.06
2022-08-07T04:48:39.238Z,16.08
2022-08-07T04:51:17.141Z,16.10
2022-08-07T04:54:01.420Z,16.10
2022-08-07T04:58:23.768Z,16.15
2022-08-07T05:00:10.746Z,16.12
2022-08-07T05:02:30.567Z,16.11
2022-08-07T05:05:11.426Z,16.17
2022-08-07T05:07:51.754Z,16.23
2022-08-07T05:10:29.490Z,16.29
2022-08-07T05:13:09.841Z,16.31
2022-08-07T05:15:53.732Z,16.40
2022-08-07T05:18:29.660Z,16.48
2022-08-07T05:21:00.262Z,16.56
2022-08-07T05:23:35.494Z,16.64
2022-08-07T05:26:11.859Z,16.70
2022-08-07T05:28:50.007Z,16.76
2022-08-07T05:31:21.587Z,16.88
2022-08-07T05:34:04.390Z,16.94
2022-08-07T05:36:35.812Z,17.01
2022-08-07T05:39:16.004Z,17.09
2022-08-07T05:42:02.473Z,17.18
2022-08-07T05:44:34.795Z,17.25
2022-08-07T05:47:18.100Z,17.30
2022-08-07T05:49:50.347Z,17.34
2022-08-07T05:52:20.112Z,17.41
2022-08-07T05:54:55.544Z,17.47
2022-08-07T05:57:26.693Z,17.55
2022-08-07T06:00:00.154Z,17.61
2022-08-07T06:02:32.405Z,17.71
2022-08-07T06:05:06.281Z,17.78
2022-08-07T06:08:13.362Z,17.87
2022-08-07T06:10:24.928Z,18.01
2022-08-07T06:12:52.942Z,18.06
2022-08-07T06:15:39.285Z,18.17
2022-08-07T06:18:13.956Z,18.26
2022-08-07T06:20:49.977Z,18.34
2022-08-07T06:24:38.657Z,18.49
2022-08-07T06:26:21.729Z,18.57
2022-08-07T06:28:59.563Z,18.63
2022-08-07T06:31:46.869Z,18.69
2022-08-07T06:34:20.411Z,18.79
2022-08-07T06:36:52.028Z,18.80
2022-08-07T06:40:17.801Z,18.88
2022-08-07T06:42:10.831Z,19.04
2022-08-07T06:44:39.798Z,19.08
2022-08-07T06:47:12.675Z,19.14
2022-08-07T06:49:52.261Z,19.22
2022-08-07T06:52:35.633Z,19.31
2022-08-07T06:55:32.014Z,19.40
2022-08-07T06:57:59.446Z,19.49
2022-08-07T07:00:28.631Z,19.56
2022-08-07T07:03:01.164Z,19.59
2022-08-07T07:06:02.762Z,19.64
2022-08-07T07:08:28.589Z,19.77
2022-08-07T07:10:57.846Z,19.84
2022-08-07T07:13:43.653Z,19.94
2022-08-07T07:16:27.539Z,20.06
2022-08-07T07:19:04.189Z,20.20
2022-08-07T07:22:05.172Z,20.29
2022-08-07T07:24:58.407Z,20.39
2022-08-07T07:27:55.747Z,20.46
2022-08-07T07:30:26.306Z,20.61
2022-08-07T07:33:02.673Z,20.73
2022-08-07T07:35:33.338Z,20.77
2022-08-07T07:38:04.972Z,20.83
2022-08-07T07:40:36.840Z,20.90
2022-08-07T07:43:15.328Z,20.97
2022-08-07T07:46:36.990Z,21.11
2022-08-07T07:48:38.489Z,21.26
2022-08-07T07:51:08.544Z,21.28
2022-08-07T07:53:50.355Z,21.42
2022-08-07T07:56:30.306Z,21.59
2022-08-07T07:59:01.633Z,21.70
2022-08-07T08:02:03.110Z,21.90
2022-08-07T08:04:25.556Z,22.13
2022-08-07T08:06:55.245Z,22.32
2022-08-07T08:09:29.559Z,22.40
2022-08-07T08:12:05.010Z,22.50
2022-08-07T08:14:34.334Z,22.73
2022-08-07T08:17:32.295Z,22.81
2022-08-07T08:20:18.853Z,23.01
2022-08-07T08:23:08.309Z,23.25
2022-08-07T08:25:56.915Z,23.52
2022-08-07T08:28:37.579Z,23.74
2022-08-07T08:31:13.816Z,23.85
2022-08-07T08:33:48.973Z,24.05
2022-08-07T08:36:25.749Z,24.25
2022-08-07T08:39:02.078Z,24.45
2022-08-07T08:41:58.408Z,24.60
2022-08-07T08:44:41.149Z,24.57
2022-08-07T08:47:22.692Z,24.72
2022-08-07T08:50:05.008Z,24.78
2022-08-07T08:52:40.766Z,24.94
2022-08-07T08:55:55.189Z,25.10
2022-08-07T08:58:28.818Z,25.20
2022-08-07T09:01:15.752Z,25.23
2022-08-07T09:03:55.210Z,25.46
2022-08-07T09:06:48.069Z,25.58
2022-08-07T09:09:36.696Z,25.83
2022-08-07T09:12:30.522Z,26.11
2022-08-07T09:16:25.297Z,26.22
2022-08-07T09:18:27.928Z,26.33
2022-08-07T09:21:06.884Z,26.52
2022-08-07T09:24:33.138Z,26.65
2022-08-07T09:26:51.943Z,26.47
2022-08-07T09:30:04.096Z,26.55
2022-08-07T09:32:32.535Z,26.59
2022-08-07T09:36:02.768Z,26.55
2022-08-07T09:38:10.953Z,26.92
2022-08-07T09:40:52.152Z,27.17
2022-08-07T09:43:40.143Z,27.15
2022-08-07T09:47:49.462Z,27.31
2022-08-07T09:50:02.567Z,27.56
2022-08-07T09:52:34.094Z,27.64
2022-08-07T09:55:29.840Z,27.81
2022-08-07T09:58:32.409Z,27.84
2022-08-07T10:01:51.760Z,28.09
2022-08-07T10:04:28.237Z,28.14
2022-08-07T10:07:25.751Z,28.36
2022-08-07T10:10:11.977Z,28.48
2022-08-07T10:13:29.676Z,28.56
2022-08-07T10:16:16.334Z,28.67
2022-08-07T10:19:15.548Z,28.88
2022-08-07T10:22:15.765Z,28.83
2022-08-07T10:24:52.088Z,29.06
2022-08-07T10:27:46.227Z,29.19
2022-08-07T10:30:19.044Z,29.17
2022-08-07T10:33:08.408Z,29.39
2022-08-07T10:35:56.961Z,29.59
2022-08-07T10:38:48.385Z,29.60
2022-08-07T10:41:47.193Z,29.67
2022-08-07T10:44:37.420Z,29.80
2022-08-07T10:47:26.975Z,29.64
2022-08-07T10:50:15.220Z,29.76
2022-08-07T10:52:53.362Z,29.90
2022-08-07T10:55:38.711Z,29.84
2022-08-07T10:58:18.848Z,30.06
2022-08-07T11:01:22.334Z,30.16
2022-08-07T11:04:11.046Z,30.42
2022-08-07T11:06:55.013Z,30.56
2022-08-07T11:10:10.389Z,30.74
2022-08-07T11:12:31.455Z,30.55
2022-08-07T11:15:09.649Z,30.53
2022-08-07T11:17:53.911Z,30.64
2022-08-07T11:20:25.665Z,30.60
2022-08-07T11:23:02.654Z,30.58
2022-08-07T11:25:47.963Z,30.72
2022-08-07T11:28:24.667Z,30.78
2022-08-07T11:30:59.075Z,30.75
2022-08-07T11:33:54.079Z,30.63
2022-08-07T11:36:44.795Z,30.61
2022-08-07T11:39:59.333Z,30.80
2022-08-07T11:42:29.667Z,30.96
2022-08-07T11:45:01.036Z,31.17
2022-08-07T11:47:56.729Z,31.06
2022-08-07T11:50:44.297Z,30.96
2022-08-07T11:53:28.416Z,31.08
2022-08-07T11:56:26.905Z,31.06
2022-08-07T12:00:08.236Z,31.24
2022-08-07T12:02:02.017Z,31.19
2022-08-07T12:04:57.950Z,31.41
2022-08-07T12:07:39.098Z,31.48
2022-08-07T12:10:14.744Z,31.56
2022-08-07T12:12:49.221Z,31.58
2022-08-07T12:15:35.940Z,31.54
2022-08-07T12:18:22.373Z,31.50
2022-08-07T12:21:08.844Z,31.49
2022-08-07T12:24:07.030Z,31.51
2022-08-07T12:26:46.825Z,31.56
2022-08-07T12:29:38.491Z,31.42
2022-08-07T12:32:18.234Z,31.22
2022-08-07T12:34:53.456Z,31.04
2022-08-07T12:37:28.163Z,30.99
2022-08-07T12:40:46.932Z,31.16
2022-08-07T12:43:11.766Z,31.33
2022-08-07T12:46:26.003Z,31.39
2022-08-07T12:49:10.125Z,31.69
2022-08-07T12:52:12.002Z,31.86
2022-08-07T12:54:54.750Z,31.90
2022-08-07T12:57:39.262Z,31.92
2022-08-07T13:00:31.275Z,32.06
2022-08-07T13:04:02.048Z,32.19
2022-08-07T13:07:02.833Z,32.08
2022-08-07T13:10:20.027Z,31.81
2022-08-07T13:12:51.642Z,31.63
2022-08-07T13:15:31.679Z,31.70
2022-08-07T13:18:25.800Z,31.72
2022-08-07T13:21:03.627Z,31.68
2022-08-07T13:24:01.873Z,31.90
2022-08-07T13:26:35.187Z,31.99
2022-08-07T13:29:12.856Z,31.96
2022-08-07T13:31:57.357Z,31.77
2022-08-07T13:34:36.614Z,31.76
2022-08-07T13:37:20.800Z,31.65
2022-08-07T13:40:36.487Z,31.55
2022-08-07T13:42:51.388Z,31.73
2022-08-07T13:46:11.800Z,31.83
2022-08-07T13:48:27.540Z,32.07
2022-08-07T13:51:02.662Z,32.33
2022-08-07T13:54:00.688Z,32.55
2022-08-07T13:56:36.037Z,32.31
2022-08-07T13:59:13.592Z,32.25
2022-08-07T14:02:03.655Z,32.06
2022-08-07T14:04:36.021Z,31.98
2022-08-07T14:07:09.388Z,32.00
2022-08-07T14:10:12.633Z,32.10
2022-08-07T14:12:36.190Z,31.88
2022-08-07T14:15:18.606Z,31.95
2022-08-07T14:18:15.963Z,32.06
2022-08-07T14:20:39.997Z,32.27
2022-08-07T14:23:12.433Z,32.38
2022-08-07T14:25:45.833Z,32.44
2022-08-07T14:28:16.398Z,32.34
2022-08-07T14:30:47.636Z,32.23
2022-08-07T14:33:22.326Z,32.29
2022-08-07T14:35:55.898Z,32.27
2022-08-07T14:38:30.905Z,32.11
2022-08-07T14:41:00.814Z,31.95
2022-08-07T14:43:58.340Z,32.14
2022-08-07T14:46:31.199Z,32.04
2022-08-07T14:49:17.355Z,32.12
2022-08-07T14:52:05.032Z,31.91
2022-08-07T14:54:35.860Z,31.97
2022-08-07T14:57:14.891Z,32.14
2022-08-07T15:00:04.674Z,32.21
2022-08-07T15:02:37.148Z,32.06
2022-08-07T15:05:19.586Z,32.04
2022-08-07T15:07:52.278Z,32.01
2022-08-07T15:10:26.721Z,31.92
2022-08-07T15:12:59.064Z,31.70
2022-08-07T15:15:30.726Z,31.40
2022-08-07T15:18:02.804Z,31.25
2022-08-07T15:20:54.583Z,31.20
2022-08-07T15:25:04.067Z,30.86
2022-08-07T15:26:21.290Z,30.80
2022-08-07T15:28:56.653Z,30.55
2022-08-07T15:31:58.132Z,30.39
2022-08-07T15:34:26.124Z,30.28
2022-08-07T15:39:56.853Z,30.10
2022-08-07T15:45:56.804Z,29.91
2022-08-07T15:48:29.923Z,29.88
2022-08-07T15:51:08.774Z,29.81
2022-08-07T15:53:52.871Z,29.64
2022-08-07T15:56:24.158Z,29.65
2022-08-07T15:58:53.627Z,29.59
2022-08-07T16:01:23.788Z,29.61
2022-08-07T16:04:14.275Z,29.47
2022-08-07T16:06:44.157Z,29.46
2022-08-07T16:09:22.629Z,29.42
2022-08-07T16:12:04.055Z,29.43
2022-08-07T16:14:36.247Z,29.49
2022-08-07T16:17:14.888Z,29.44
2022-08-07T16:19:59.759Z,29.43
2022-08-07T16:22:54.328Z,29.41
2022-08-07T16:25:52.541Z,29.37
2022-08-07T16:30:08.532Z,29.25
2022-08-07T16:31:57.243Z,29.15
2022-08-07T16:34:28.365Z,29.04
2022-08-07T16:38:04.607Z,29.01
2022-08-07T16:40:28.663Z,28.98
2022-08-07T16:43:05.143Z,28.96
2022-08-07T16:46:34.752Z,28.92
2022-08-07T16:48:53.847Z,28.89
2022-08-07T16:51:54.129Z,28.83
2022-08-07T16:54:54.429Z,28.76
2022-08-07T16:58:02.701Z,28.74
2022-08-07T17:00:29.936Z,28.71
2022-08-07T17:03:17.211Z,28.64
2022-08-07T17:06:22.448Z,28.59
2022-08-07T17:08:57.222Z,28.57
2022-08-07T17:11:27.759Z,28.52
2022-08-07T17:14:22.269Z,28.48
2022-08-07T17:16:55.936Z,28.45
2022-08-07T17:20:01.979Z,28.41
2022-08-07T17:22:36.229Z,28.28
2022-08-07T17:25:10.972Z,28.25
2022-08-07T17:27:51.050Z,28.25
2022-08-07T17:30:26.828Z,28.20
2022-08-07T17:33:05.061Z,28.13
2022-08-07T17:35:56.246Z,28.10
2022-08-07T17:38:33.671Z,28.04
2022-08-07T17:42:00.685Z,27.94
2022-08-07T17:44:02.954Z,27.86
2022-08-07T17:46:40.283Z,27.82
2022-08-07T17:49:10.466Z,27.75
2022-08-07T17:52:00.895Z,27.72
2022-08-07T17:54:53.186Z,27.60
2022-08-07T17:57:25.189Z,27.51
2022-08-07T18:00:32.728Z,27.46
2022-08-07T18:03:09.387Z,27.42
2022-08-07T18:06:03.387Z,27.34
2022-08-07T18:08:32.554Z,27.26
2022-08-07T18:12:06.809Z,27.20
2022-08-07T18:14:01.529Z,27.13
2022-08-07T18:16:32.979Z,27.05
2022-08-07T18:21:08.187Z,26.98
2022-08-07T18:22:06.300Z,26.89
2022-08-07T18:24:43.021Z,26.83
2022-08-07T18:27:17.379Z,26.76
2022-08-07T18:30:08.294Z,26.69
2022-08-07T18:33:00.257Z,26.54
2022-08-07T18:35:51.844Z,26.52
2022-08-07T18:38:58.567Z,26.45
2022-08-07T18:41:20.601Z,26.36
2022-08-07T18:43:57.588Z,26.31
2022-08-07T18:46:30.267Z,26.21
2022-08-07T18:50:30.663Z,26.13
2022-08-07T18:52:35.590Z,26.04
2022-08-07T18:54:50.984Z,25.97
2022-08-07T18:57:31.048Z,25.89
2022-08-07T19:00:34.496Z,25.81
2022-08-07T19:02:59.868Z,25.70
2022-08-07T19:06:03.058Z,25.61
2022-08-07T19:08:19.971Z,25.54
2022-08-07T19:10:51.686Z,25.47
2022-08-07T19:13:41.982Z,25.34
2022-08-07T19:17:00.719Z,25.23
2022-08-07T19:19:13.148Z,25.18
2022-08-07T19:21:53.472Z,25.09
2022-08-07T19:24:30.770Z,24.95
2022-08-07T19:28:29.783Z,24.90
2022-08-07T19:30:55.743Z,24.80
2022-08-07T19:32:45.452Z,24.75
2022-08-07T19:35:17.831Z,24.67
2022-08-07T19:37:57.175Z,24.59
2022-08-07T19:40:31.325Z,24.47
2022-08-07T19:43:01.053Z,24.44
2022-08-07T19:46:07.689Z,24.36
2022-08-07T19:48:24.438Z,24.28
2022-08-07T19:50:53.577Z,24.20
2022-08-07T19:54:33.483Z,24.11
2022-08-07T19:58:01.693Z,24.07
2022-08-07T19:59:02.568Z,24.00
2022-08-07T20:01:56.089Z,23.99
2022-08-07T20:04:31.432Z,23.91
2022-08-07T20:07:09.258Z,23.84
2022-08-07T20:10:37.332Z,23.80
2022-08-07T20:12:34.422Z,23.79
2022-08-07T20:15:04.552Z,23.72
2022-08-07T20:17:40.507Z,23.65
2022-08-07T20:20:11.977Z,23.61
2022-08-07T20:22:45.221Z,23.58
2022-08-07T20:25:19.723Z,23.50
2022-08-07T20:27:54.303Z,23.45
2022-08-07T20:30:30.902Z,23.44
2022-08-07T20:33:00.875Z,23.33
2022-08-07T20:35:34.237Z,23.26
2022-08-07T20:38:06.274Z,23.17
2022-08-07T20:40:41.303Z,23.12
2022-08-07T20:43:19.260Z,23.07
2022-08-07T20:46:27.148Z,23.02
2022-08-07T20:48:42.230Z,22.98
2022-08-07T20:51:30.196Z,22.91
2022-08-07T20:54:08.711Z,22.87
2022-08-07T20:56:48.259Z,22.83
2022-08-07T21:00:04.839Z,22.81
2022-08-07T21:02:14.577Z,22.75
2022-08-07T21:04:55.897Z,22.65
2022-08-07T21:07:25.949Z,22.63
2022-08-07T21:09:59.105Z,22.53
2022-08-07T21:12:30.957Z,22.46
2022-08-07T21:15:02.654Z,22.43
2022-08-07T21:18:02.996Z,22.36
2022-08-07T21:20:29.799Z,22.28
2022-08-07T21:22:59.298Z,22.23
2022-08-07T21:25:43.552Z,22.18
2022-08-07T21:28:13.373Z,22.06
2022-08-07T21:30:46.562Z,21.99
2022-08-07T21:33:17.719Z,21.92
2022-08-07T21:36:05.134Z,21.88
2022-08-07T21:38:46.885Z,21.85
2022-08-07T21:41:20.598Z,21.77
2022-08-07T21:43:56.068Z,21.67
2022-08-07T21:46:31.884Z,21.58
2022-08-07T21:49:04.768Z,21.55
2022-08-07T21:51:50.977Z,21.48
2022-08-07T21:54:26.625Z,21.42
2022-08-07T21:57:05.254Z,21.39
2022-08-07T22:00:02.832Z,21.37
2022-08-07T22:02:27.599Z,21.36
2022-08-07T22:04:59.923Z,21.33
2022-08-07T22:07:31.399Z,21.28
2022-08-07T22:10:04.118Z,21.29
2022-08-07T22:12:35.990Z,21.27
2022-08-07T22:16:42.550Z,21.25
2022-08-07T22:17:57.779Z,21.25
2022-08-07T22:20:28.460Z,21.24
2022-08-07T22:23:01.610Z,21.24
2022-08-07T22:25:36.515Z,21.21
2022-08-07T22:28:30.262Z,21.19
2022-08-07T22:30:58.506Z,21.15
2022-08-07T22:33:52.533Z,21.14
2022-08-07T22:36:26.404Z,21.11
2022-08-07T22:38:59.886Z,21.11
2022-08-07T22:42:03.681Z,21.06
2022-08-07T22:44:20.183Z,21.04
2022-08-07T22:47:03.310Z,21.02
2022-08-07T22:49:42.885Z,21.01
2022-08-07T22:52:39.971Z,20.98
2022-08-07T22:55:30.239Z,20.99
2022-08-07T22:58:18.973Z,20.97
2022-08-07T23:00:54.852Z,20.98
2022-08-07T23:03:58.456Z,20.92
2022-08-07T23:06:35.812Z,20.90
2022-08-07T23:10:01.049Z,20.89
2022-08-07T23:12:10.204Z,20.81
2022-08-07T23:14:48.335Z,20.82
2022-08-07T23:17:26.939Z,20.76
2022-08-07T23:20:51.437Z,20.71
2022-08-07T23:24:05.013Z,20.66
2022-08-07T23:26:23.382Z,20.63
2022-08-07T23:29:17.150Z,20.59
2022-08-07T23:34:23.019Z,20.55
2022-08-07T23:35:08.601Z,20.54
2022-08-07T23:38:01.320Z,20.53
2022-08-07T23:40:35.423Z,20.53
2022-08-07T23:43:21.397Z,20.54
2022-08-07T23:46:03.100Z,20.52
2022-08-07T23:48:43.323Z,20.45
2022-08-07T23:53:05.140Z,20.39
2022-08-07T23:54:08.323Z,20.33
2022-08-07T23:56:54.000Z,20.23
